Time;durP1;ratioP1;P1;durP2;ratioP2;P2;SDS_P1;SDS_P2;PMS_P1;PMS_P2;Temp;Humidity;BMP_temperature;BMP_pressure;BME280_temperature;BME280_humidity;BME280_pressure;Samples;Min_cycle;Max_cycle;Signal;HPM_P1;HPM_P2
2023/07/05 00:01:33;;;;;;;;;;;;;;;21.79;71.65;99876.19;4479522;32;34308;-79
2023/07/05 00:04:01;;;;;;;;;;;;;;;21.72;71.76;99878.81;4485028;32;33886;-79
2023/07/05 00:06:28;;;;;;;;;;;;;;;21.52;72.85;99868.28;4485053;32;33361;-79
2023/07/05 00:08:56;;;;;;;;;;;;;;;21.33;73.83;99868.19;4484680;32;34058;-77
2023/07/05 00:11:23;;;;;;;;;;;;;;;21.10;74.96;99875.16;4485033;32;34471;-76
2023/07/05 00:13:51;;;;;;;;;;;;;;;21.35;73.34;99874.34;4485138;32;34129;-78
2023/07/05 00:16:19;;;;;;;;;;;;;;;20.83;75.61;99874.19;4477336;32;33439;-78
2023/07/05 00:18:46;;;;;;;;;;;;;;;21.02;74.45;99869.88;4475087;32;34268;-78
2023/07/05 00:21:13;;;;;;;;;;;;;;;21.12;74.13;99871.66;4485061;32;33987;-80
2023/07/05 00:23:43;;;;;;;;;;;;;;;20.96;74.29;99867.22;4475136;32;34101;-76
2023/07/05 00:26:11;;;;;;;;;;;;;;;21.08;74.22;99869.03;4484070;32;32576;-80
2023/07/05 00:28:38;;;;;;;;;;;;;;;20.74;74.87;99868.88;4484164;32;34365;-79
2023/07/05 00:31:05;;;;;;;;;;;;;;;20.87;74.64;99864.56;4484506;32;32253;-77
2023/07/05 00:33:33;;;;;;;;;;;;;;;21.22;72.45;99859.38;4484565;32;33693;-77
2023/07/05 00:36:00;;;;;;;;;;;;;;;21.37;71.93;99862.06;4479005;32;33308;-78
2023/07/05 00:38:28;;;;;;;;;;;;;;;21.23;72.07;99866.44;4483615;31;33121;-76
2023/07/05 00:40:55;;;;;;;;;;;;;;;21.19;72.49;99862.03;4484947;32;34615;-78
2023/07/05 00:43:23;;;;;;;;;;;;;;;20.99;73.85;99869.84;4483572;32;35001;-77
2023/07/05 00:45:57;;;;;;;;;;;;;;;21.20;72.38;99867.28;4484468;32;33541;-76
2023/07/05 00:48:25;;;;;;;;;;;;;;;21.49;71.18;99870.91;4473082;32;33862;-78
2023/07/05 00:50:54;;;;;;;;;;;;;;;21.39;71.08;99864.69;4470713;32;35174;-78
2023/07/05 00:53:21;;;;;;;;;;;;;;;21.23;72.03;99868.16;4478443;32;33532;-77
2023/07/05 00:55:51;;;;;;;;;;;;;;;21.41;71.00;99871.72;4479805;32;33488;-76
2023/07/05 00:58:18;;;;;;;;;;;;;;;21.10;73.10;99870.78;4474993;32;34792;-76
2023/07/05 01:00:46;;;;;;;;;;;;;;;21.16;72.92;99868.16;4484436;32;33983;-78
2023/07/05 01:03:16;;;;;;;;;;;;;;;20.55;75.28;99866.13;4482573;32;34200;-77
2023/07/05 01:05:43;;;;;;;;;;;;;;;20.73;74.43;99867.12;4470699;32;32439;-75
2023/07/05 01:08:11;;;;;;;;;;;;;;;20.33;76.01;99866.88;4470720;32;33877;-78
2023/07/05 01:10:39;;;;;;;;;;;;;;;20.65;74.72;99859.19;4478355;32;34873;-76
2023/07/05 01:13:16;;;;;;;;;;;;;;;20.31;76.42;99873.88;4480849;32;34530;-77
2023/07/05 01:15:45;;;;;;;;;;;;;;;20.45;75.86;99860.81;4470801;32;33390;-77
2023/07/05 01:18:12;;;;;;;;;;;;;;;20.21;76.72;99863.28;4472948;32;34738;-79
2023/07/05 01:20:46;;;;;;;;;;;;;;;20.20;77.12;99864.19;4475283;32;34100;-79
2023/07/05 01:23:37;;;;;;;;;;;;;;;20.04;77.72;99872.81;4480967;32;33835;-80
2023/07/05 01:26:19;;;;;;;;;;;;;;;20.23;76.85;99865.94;4469378;32;34089;-79
2023/07/05 01:28:54;;;;;;;;;;;;;;;20.52;74.82;99858.22;4478022;32;34939;-79
2023/07/05 01:31:30;;;;;;;;;;;;;;;20.81;73.99;99860.12;4481334;32;33900;-77
2023/07/05 01:34:03;;;;;;;;;;;;;;;20.60;74.88;99851.25;4472804;32;34910;-78
2023/07/05 01:36:31;;;;;;;;;;;;;;;20.23;76.45;99856.28;4471457;32;34109;-77
2023/07/05 01:38:59;;;;;;;;;;;;;;;20.96;73.51;99854.94;4473737;32;34015;-79
2023/07/05 01:41:27;;;;;;;;;;;;;;;20.85;73.31;99856.63;4479647;32;34044;-78
2023/07/05 01:43:55;;;;;;;;;;;;;;;21.06;72.68;99862.88;4473874;32;32596;-76
2023/07/05 01:46:40;;;;;;;;;;;;;;;20.98;72.38;99858.44;4476780;32;33342;-77
2023/07/05 01:49:27;;;;;;;;;;;;;;;20.83;73.35;99858.38;4476841;32;34283;-76
2023/07/05 01:52:12;;;;;;;;;;;;;;;20.32;75.24;99854.56;4481041;32;34264;-76
2023/07/05 01:54:58;;;;;;;;;;;;;;;20.48;74.57;99851.19;4468370;32;34189;-76
2023/07/05 01:57:29;;;;;;;;;;;;;;;20.78;73.28;99849.59;4483816;32;33275;-77
2023/07/05 02:00:02;;;;;;;;;;;;;;;20.41;74.91;99852.88;4473959;32;35565;-76
2023/07/05 02:02:38;;;;;;;;;;;;;;;20.89;72.54;99850.50;4483709;32;34684;-78
2023/07/05 02:05:07;;;;;;;;;;;;;;;20.72;72.91;99844.28;4477423;32;33681;-77
2023/07/05 02:07:34;;;;;;;;;;;;;;;20.31;75.24;99848.44;4475662;32;33462;-79
2023/07/05 02:10:01;;;;;;;;;;;;;;;20.75;72.69;99852.22;4468845;32;31496;-79
2023/07/05 02:12:29;;;;;;;;;;;;;;;20.98;71.26;99853.19;4459953;32;33981;-77
2023/07/05 02:14:56;;;;;;;;;;;;;;;21.08;70.71;99848.81;4482591;32;33659;-78
2023/07/05 02:17:23;;;;;;;;;;;;;;;20.72;73.05;99849.56;4474620;32;32985;-75
2023/07/05 02:19:52;;;;;;;;;;;;;;;20.26;75.02;99849.28;4480896;32;33840;-76
2023/07/05 02:22:19;;;;;;;;;;;;;;;20.25;75.20;99847.53;4481535;32;35270;-80
2023/07/05 02:24:50;;;;;;;;;;;;;;;20.30;75.04;99848.44;4473754;32;34369;-76
2023/07/05 02:27:18;;;;;;;;;;;;;;;20.85;72.67;99843.47;4480646;32;34250;-79
2023/07/05 02:29:45;;;;;;;;;;;;;;;20.87;72.38;99849.63;4481729;32;33974;-76
2023/07/05 02:32:13;;;;;;;;;;;;;;;20.16;74.65;99853.59;4468931;32;33965;-77
2023/07/05 02:34:40;;;;;;;;;;;;;;;20.33;73.95;99851.09;4473208;32;34844;-80
2023/07/05 02:37:08;;;;;;;;;;;;;;;20.95;70.92;99840.00;4483699;32;33163;-78
2023/07/05 02:39:36;;;;;;;;;;;;;;;20.33;73.61;99841.44;4473173;32;34838;-80
2023/07/05 02:42:03;;;;;;;;;;;;;;;20.55;73.13;99839.81;4473741;32;35082;-76
2023/07/05 02:44:31;;;;;;;;;;;;;;;21.05;70.63;99837.38;4482930;32;33989;-77
2023/07/05 02:46:58;;;;;;;;;;;;;;;21.38;68.31;99848.00;4475045;32;33459;-77
2023/07/05 02:49:25;;;;;;;;;;;;;;;20.22;74.13;99843.13;4483346;32;33923;-78
2023/07/05 02:51:54;;;;;;;;;;;;;;;20.17;74.61;99843.09;4483641;32;34782;-79
2023/07/05 02:54:21;;;;;;;;;;;;;;;19.87;75.93;99848.16;4470884;32;34411;-76
2023/07/05 02:56:48;;;;;;;;;;;;;;;19.93;75.86;99838.53;4477806;32;33189;-80
2023/07/05 02:59:16;;;;;;;;;;;;;;;19.97;75.61;99842.06;4472441;32;35398;-81
2023/07/05 03:01:44;;;;;;;;;;;;;;;19.81;76.32;99849.84;4476212;32;34051;-80
2023/07/05 03:04:13;;;;;;;;;;;;;;;20.73;71.41;99841.69;4475966;32;34234;-78
2023/07/05 03:06:41;;;;;;;;;;;;;;;20.54;72.43;99842.44;4474221;32;33425;-76
2023/07/05 03:09:08;;;;;;;;;;;;;;;19.96;74.89;99846.47;4481004;32;34312;-79
2023/07/05 03:11:36;;;;;;;;;;;;;;;19.63;76.63;99852.31;4475253;32;34757;-78
2023/07/05 03:14:04;;;;;;;;;;;;;;;19.93;75.00;99845.56;4482764;32;34331;-79
2023/07/05 03:16:31;;;;;;;;;;;;;;;19.63;76.69;99853.19;4473971;32;33115;-80
2023/07/05 03:18:58;;;;;;;;;;;;;;;20.07;74.83;99848.28;4485526;32;34109;-78
2023/07/05 03:21:26;;;;;;;;;;;;;;;20.06;74.82;99846.53;4485415;32;33936;-77
2023/07/05 03:23:53;;;;;;;;;;;;;;;20.59;73.01;99848.59;4484419;32;34280;-77
2023/07/05 03:26:21;;;;;;;;;;;;;;;20.71;72.26;99847.81;4472947;32;33897;-78
2023/07/05 03:28:49;;;;;;;;;;;;;;;20.78;71.64;99845.22;4479949;32;33884;-79
2023/07/05 03:31:16;;;;;;;;;;;;;;;20.99;70.39;99852.28;4478886;32;34784;-79
2023/07/05 03:33:44;;;;;;;;;;;;;;;20.25;73.61;99843.16;4485859;32;34098;-79
2023/07/05 03:36:12;;;;;;;;;;;;;;;19.68;76.67;99845.31;4483988;32;32980;-79
2023/07/05 03:38:40;;;;;;;;;;;;;;;19.69;77.03;99852.34;4474631;32;34849;-78
2023/07/05 03:41:16;;;;;;;;;;;;;;;20.30;74.17;99854.59;4477659;32;34147;-80
2023/07/05 03:43:45;;;;;;;;;;;;;;;20.41;73.20;99844.97;4481647;32;34345;-77
2023/07/05 03:46:14;;;;;;;;;;;;;;;20.12;74.58;99850.06;4483559;32;33237;-80
2023/07/05 03:48:42;;;;;;;;;;;;;;;19.97;75.53;99849.97;4470832;32;34584;-77
2023/07/05 03:51:11;;;;;;;;;;;;;;;20.13;75.14;99853.59;4475963;32;34289;-77
2023/07/05 03:53:38;;;;;;;;;;;;;;;20.01;75.67;99860.53;4468650;32;34378;-80
2023/07/05 03:56:06;;;;;;;;;;;;;;;19.92;76.64;99851.69;4482641;32;33406;-81
2023/07/05 03:58:34;;;;;;;;;;;;;;;20.61;73.12;99842.50;4472738;32;33543;-80
2023/07/05 04:01:05;;;;;;;;;;;;;;;20.27;75.02;99857.19;4485310;32;33909;-81
2023/07/05 04:03:33;;;;;;;;;;;;;;;20.42;73.86;99854.66;4485411;32;34349;-77
2023/07/05 04:06:03;;;;;;;;;;;;;;;20.18;75.44;99860.62;4477904;32;33109;-78
2023/07/05 04:08:30;;;;;;;;;;;;;;;20.39;75.20;99848.50;4471449;32;34898;-79
2023/07/05 04:10:58;;;;;;;;;;;;;;;20.46;74.71;99846.78;4483271;32;33816;-78
2023/07/05 04:13:25;;;;;;;;;;;;;;;20.55;74.64;99847.72;4480253;32;34203;-77
2023/07/05 04:16:03;;;;;;;;;;;;;;;20.31;75.68;99852.84;4474451;32;33371;-78
2023/07/05 04:18:31;;;;;;;;;;;;;;;20.04;77.63;99854.41;4472504;32;33547;-78
2023/07/05 04:20:59;;;;;;;;;;;;;;;20.39;76.05;99851.13;4481434;32;33909;-76
2023/07/05 04:23:26;;;;;;;;;;;;;;;20.55;75.48;99852.97;4484800;32;35328;-81
2023/07/05 04:26:04;;;;;;;;;;;;;;;20.22;77.18;99859.81;4475229;32;33999;-80
2023/07/05 04:28:31;;;;;;;;;;;;;;;20.42;76.86;99857.28;4467921;32;33691;-79
2023/07/05 04:30:59;;;;;;;;;;;;;;;20.76;75.53;99861.84;4479797;32;34768;-81
2023/07/05 04:33:27;;;;;;;;;;;;;;;20.77;75.57;99864.50;4483953;32;32584;-80
2023/07/05 04:35:55;;;;;;;;;;;;;;;21.07;74.32;99867.25;4483511;32;33412;-79
2023/07/05 04:38:23;;;;;;;;;;;;;;;21.41;72.75;99874.34;4481900;32;32369;-81
2023/07/05 04:40:50;;;;;;;;;;;;;;;21.24;73.77;99868.16;4475983;32;33551;-79
2023/07/05 04:43:17;;;;;;;;;;;;;;;21.29;73.80;99863.81;4484875;32;34175;-78
2023/07/05 04:45:49;;;;;;;;;;;;;;;21.19;74.26;99877.84;4475543;32;33730;-78
2023/07/05 04:48:19;;;;;;;;;;;;;;;21.07;74.96;99872.50;4472355;32;35660;-76
2023/07/05 04:50:48;;;;;;;;;;;;;;;21.28;74.52;99876.97;4480948;32;34039;-77
2023/07/05 04:53:16;;;;;;;;;;;;;;;21.46;73.91;99876.16;4476183;32;34948;-77
2023/07/05 04:55:45;;;;;;;;;;;;;;;21.16;75.25;99883.09;4476361;32;34103;-80
2023/07/05 04:58:12;;;;;;;;;;;;;;;21.64;73.37;99880.59;4472227;32;34005;-78
2023/07/05 05:00:39;;;;;;;;;;;;;;;21.65;73.19;99875.28;4474003;32;33938;-79
2023/07/05 05:03:07;;;;;;;;;;;;;;;22.14;71.40;99877.06;4479902;32;34679;-80
2023/07/05 05:05:35;;;;;;;;;;;;;;;22.12;71.48;99878.81;4484548;32;33053;-80
2023/07/05 05:08:02;;;;;;;;;;;;;;;22.32;70.59;99876.19;4478949;32;32471;-79
2023/07/05 05:10:29;;;;;;;;;;;;;;;22.17;71.47;99883.22;4484662;32;34002;-77
2023/07/05 05:12:59;;;;;;;;;;;;;;;22.12;72.00;99876.19;4481114;32;34770;-78
2023/07/05 05:15:26;;;;;;;;;;;;;;;22.28;71.59;99879.72;4478091;32;33733;-77
2023/07/05 05:17:53;;;;;;;;;;;;;;;22.18;72.11;99874.41;4474861;32;33857;-77
2023/07/05 05:20:21;;;;;;;;;;;;;;;22.18;71.87;99884.97;4478412;32;34005;-79
2023/07/05 05:22:49;;;;;;;;;;;;;;;22.40;70.91;99877.03;4474039;32;33497;-78
2023/07/05 05:25:16;;;;;;;;;;;;;;;22.49;70.44;99863.81;4477697;32;34831;-79
2023/07/05 05:27:44;;;;;;;;;;;;;;;22.56;70.22;99869.94;4479581;32;34200;-77
2023/07/05 05:30:11;;;;;;;;;;;;;;;22.53;70.49;99876.12;4480793;32;33484;-86
2023/07/05 05:32:38;;;;;;;;;;;;;;;22.60;70.03;99870.81;4477644;32;34990;-82
2023/07/05 05:35:06;;;;;;;;;;;;;;;22.76;69.66;99867.25;4478564;32;33268;-86
2023/07/05 05:37:33;;;;;;;;;;;;;;;22.78;69.58;99871.63;4482769;32;34175;-87
2023/07/05 05:40:02;;;;;;;;;;;;;;;22.87;69.19;99869.84;4480741;32;34165;-86
2023/07/05 05:42:30;;;;;;;;;;;;;;;23.16;69.41;99872.41;4481443;32;34290;-78
2023/07/05 05:44:57;;;;;;;;;;;;;;;22.91;70.00;99869.84;4481852;32;34412;-80
2023/07/05 05:47:24;;;;;;;;;;;;;;;22.98;70.38;99873.31;4471123;32;33555;-77
2023/07/05 05:49:52;;;;;;;;;;;;;;;22.78;71.41;99870.78;4471723;32;34260;-84
2023/07/05 05:52:19;;;;;;;;;;;;;;;23.36;70.15;99870.50;4481082;32;34493;-80
2023/07/05 05:54:46;;;;;;;;;;;;;;;23.23;70.51;99867.94;4479707;32;33058;-76
2023/07/05 05:57:14;;;;;;;;;;;;;;;23.31;70.54;99867.03;4478142;32;34097;-78
2023/07/05 05:59:41;;;;;;;;;;;;;;;23.48;70.18;99863.37;4481410;32;33607;-78
2023/07/05 06:02:08;;;;;;;;;;;;;;;23.29;70.65;99858.19;4481633;32;34041;-78
2023/07/05 06:04:36;;;;;;;;;;;;;;;23.65;69.74;99868.56;4482848;32;32865;-76
2023/07/05 06:07:03;;;;;;;;;;;;;;;23.93;69.09;99863.94;4475555;32;34223;-79
2023/07/05 06:09:36;;;;;;;;;;;;;;;23.84;69.50;99856.09;4477266;32;34933;-77
2023/07/05 06:12:03;;;;;;;;;;;;;;;23.75;69.97;99857.88;4478220;32;35082;-79
2023/07/05 06:14:31;;;;;;;;;;;;;;;24.02;69.20;99845.31;4473047;32;34078;-79
2023/07/05 06:16:58;;;;;;;;;;;;;;;24.32;68.19;99845.94;4481349;32;34107;-79
2023/07/05 06:19:26;;;;;;;;;;;;;;;24.57;67.55;99853.63;4481637;32;34085;-81
2023/07/05 06:21:53;;;;;;;;;;;;;;;24.78;66.43;99853.34;4481869;32;34932;-77
2023/07/05 06:24:20;;;;;;;;;;;;;;;24.88;65.87;99844.41;4471508;32;33123;-78
2023/07/05 06:26:48;;;;;;;;;;;;;;;25.01;65.58;99846.88;4472804;32;33779;-77
2023/07/05 06:29:15;;;;;;;;;;;;;;;25.01;63.03;99849.53;4479255;32;32930;-78
2023/07/05 06:31:42;;;;;;;;;;;;;;;25.27;63.16;99851.88;4480126;32;35126;-79
2023/07/05 06:34:10;;;;;;;;;;;;;;;25.48;62.76;99840.94;4470227;32;31852;-78
2023/07/05 06:36:37;;;;;;;;;;;;;;;25.59;62.57;99843.41;4479119;32;34276;-81
2023/07/05 06:39:04;;;;;;;;;;;;;;;25.79;60.20;99840.44;4481148;32;34750;-78
2023/07/05 06:41:32;;;;;;;;;;;;;;;25.80;61.34;99843.94;4483312;32;34926;-79
2023/07/05 06:43:59;;;;;;;;;;;;;;;25.87;60.85;99842.97;4485456;32;33213;-78
2023/07/05 06:46:26;;;;;;;;;;;;;;;26.22;59.22;99844.12;4473955;32;34807;-77
2023/07/05 06:48:54;;;;;;;;;;;;;;;26.28;59.32;99839.56;4479644;32;34867;-78
2023/07/05 06:51:22;;;;;;;;;;;;;;;26.33;59.17;99842.16;4470746;32;33662;-78
2023/07/05 06:53:49;;;;;;;;;;;;;;;26.57;59.08;99837.25;4482670;32;33177;-78
2023/07/05 06:56:17;;;;;;;;;;;;;;;26.82;58.45;99835.00;4471613;32;32464;-77
2023/07/05 06:58:44;;;;;;;;;;;;;;;26.74;58.07;99837.81;4480715;32;34486;-76
2023/07/05 07:01:11;;;;;;;;;;;;;;;27.04;57.33;99840.72;4475140;32;33653;-78
2023/07/05 07:03:39;;;;;;;;;;;;;;;27.01;58.02;99835.47;4479199;32;33357;-76
2023/07/05 07:06:07;;;;;;;;;;;;;;;27.33;56.86;99840.06;4480881;32;34969;-77
2023/07/05 07:08:35;;;;;;;;;;;;;;;27.63;55.50;99835.81;4483527;32;34784;-79
2023/07/05 07:11:03;;;;;;;;;;;;;;;27.71;55.77;99837.41;4480921;32;34292;-77
2023/07/05 07:13:30;;;;;;;;;;;;;;;27.84;54.05;99829.09;4476975;32;33476;-77
2023/07/05 07:16:05;;;;;;;;;;;;;;;28.35;53.45;99825.09;4483459;32;33626;-79
2023/07/05 07:18:35;;;;;;;;;;;;;;;28.35;53.32;99818.87;4480114;32;34977;-77
2023/07/05 07:21:07;;;;;;;;;;;;;;;28.49;52.86;99823.81;4481761;32;34368;-76
2023/07/05 07:23:34;;;;;;;;;;;;;;;28.67;52.69;99826.00;4474630;32;35049;-77
2023/07/05 07:26:06;;;;;;;;;;;;;;;28.86;51.76;99825.44;4481402;32;34146;-78
2023/07/05 07:28:33;;;;;;;;;;;;;;;29.05;50.35;99831.97;4476535;32;33976;-77
2023/07/05 07:31:17;;;;;;;;;;;;;;;29.35;49.74;99826.63;4474505;32;33839;-83
2023/07/05 07:33:44;;;;;;;;;;;;;;;29.54;49.65;99824.25;4477534;32;33807;-77
2023/07/05 07:36:13;;;;;;;;;;;;;;;29.82;49.22;99829.53;4483981;32;34767;-76
2023/07/05 07:38:40;;;;;;;;;;;;;;;30.04;48.28;99827.03;4480012;32;34683;-78
2023/07/05 07:41:15;;;;;;;;;;;;;;;30.06;47.38;99830.50;4483276;32;34769;-83
2023/07/05 07:43:43;;;;;;;;;;;;;;;30.20;47.75;99814.00;4476898;32;33499;-78
2023/07/05 07:46:14;;;;;;;;;;;;;;;30.30;45.97;99819.88;4476262;32;33731;-78
2023/07/05 07:48:43;;;;;;;;;;;;;;;30.47;46.06;99813.94;4479349;32;32403;-78
2023/07/05 07:51:10;;;;;;;;;;;;;;;30.69;47.30;99822.88;4478216;32;34836;-78
2023/07/05 07:53:58;;;;;;;;;;;;;;;30.74;46.56;99815.56;4483659;32;33169;-77
2023/07/05 07:56:26;;;;;;;;;;;;;;;30.74;47.12;99810.22;4476057;32;34319;-77
2023/07/05 07:58:54;;;;;;;;;;;;;;;30.77;45.20;99811.91;4479156;32;33863;-77
2023/07/05 08:01:25;;;;;;;;;;;;;;;31.08;46.47;99808.06;4481536;32;35129;-80
2023/07/05 08:03:53;;;;;;;;;;;;;;;31.20;44.61;99818.28;4472092;32;33131;-79
2023/07/05 08:06:26;;;;;;;;;;;;;;;31.40;44.74;99803.22;4474652;32;34808;-77
2023/07/05 08:08:54;;;;;;;;;;;;;;;31.64;43.40;99812.06;4472786;32;33650;-76
2023/07/05 08:11:21;;;;;;;;;;;;;;;31.92;43.80;99815.31;4482418;32;34924;-76
2023/07/05 08:13:49;;;;;;;;;;;;;;;32.14;42.64;99811.72;4482865;32;33616;-76
2023/07/05 08:16:17;;;;;;;;;;;;;;;32.14;41.79;99811.72;4478568;32;34266;-76
2023/07/05 08:18:44;;;;;;;;;;;;;;;32.19;41.16;99817.75;4483464;32;34463;-79
2023/07/05 08:21:15;;;;;;;;;;;;;;;32.28;39.60;99809.31;4477724;31;32543;-80
2023/07/05 08:23:43;;;;;;;;;;;;;;;32.38;39.13;99806.22;4484908;32;34067;-76
2023/07/05 08:26:10;;;;;;;;;;;;;;;32.46;40.83;99806.75;4483494;32;34054;-76
2023/07/05 08:28:38;;;;;;;;;;;;;;;32.55;40.50;99803.66;4478711;32;34163;-79
2023/07/05 08:31:06;;;;;;;;;;;;;;;32.63;39.68;99809.53;4484831;32;33939;-77
2023/07/05 08:33:34;;;;;;;;;;;;;;;32.37;39.52;99796.44;4473669;32;32924;-78
2023/07/05 08:36:09;;;;;;;;;;;;;;;32.37;41.53;99804.47;4468320;32;33850;-76
2023/07/05 08:38:42;;;;;;;;;;;;;;;32.59;40.36;99804.38;4478257;32;34490;-78
2023/07/05 08:41:19;;;;;;;;;;;;;;;32.74;39.54;99798.31;4470471;32;34400;-77
2023/07/05 08:43:58;;;;;;;;;;;;;;;32.69;39.99;99803.91;4469249;32;33253;-76
2023/07/05 08:46:26;;;;;;;;;;;;;;;33.00;39.73;99812.31;4481769;32;34920;-79
2023/07/05 08:49:01;;;;;;;;;;;;;;;33.12;38.08;99817.13;4474873;32;34379;-80
2023/07/05 08:51:29;;;;;;;;;;;;;;;33.06;38.36;99812.88;4476886;32;33531;-78
2023/07/05 08:53:57;;;;;;;;;;;;;;;32.66;38.29;99806.72;4485142;32;32784;-78
2023/07/05 08:56:44;;;;;;;;;;;;;;;32.79;38.66;99808.84;4481482;32;34270;-76
2023/07/05 08:59:24;;;;;;;;;;;;;;;32.99;37.32;99810.56;4471581;32;33688;-79
2023/07/05 09:01:51;;;;;;;;;;;;;;;33.22;38.48;99812.16;4474095;32;34335;-79
2023/07/05 09:04:34;;;;;;;;;;;;;;;33.65;38.31;99810.06;4475019;32;33688;-78
2023/07/05 09:07:34;;;;;;;;;;;;;;;33.80;37.46;99803.91;4476283;32;33161;-77
2023/07/05 09:10:07;;;;;;;;;;;;;;;33.85;36.89;99801.84;4448978;32;34287;-78
2023/07/05 09:12:37;;;;;;;;;;;;;;;33.79;36.26;99802.19;4480820;32;34693;-79
2023/07/05 09:15:04;;;;;;;;;;;;;;;34.02;35.95;99805.50;4469341;32;33791;-77
2023/07/05 09:17:32;;;;;;;;;;;;;;;34.10;33.43;99789.84;4476000;32;34753;-78
2023/07/05 09:19:59;;;;;;;;;;;;;;;34.09;35.95;99793.44;4484434;32;34175;-77
2023/07/05 09:22:27;;;;;;;;;;;;;;;34.08;37.44;99794.41;4481831;32;33926;-76
2023/07/05 09:24:55;;;;;;;;;;;;;;;33.81;35.86;99797.59;4476969;32;33446;-76
2023/07/05 09:27:30;;;;;;;;;;;;;;;34.03;36.34;99789.28;4466756;32;34071;-76
2023/07/05 09:29:58;;;;;;;;;;;;;;;33.46;36.39;99789.47;4472282;32;33970;-77
2023/07/05 09:32:31;;;;;;;;;;;;;;;33.34;37.32;99800.84;4473583;32;34075;-78
2023/07/05 09:34:59;;;;;;;;;;;;;;;33.67;35.84;99792.94;4475519;32;32824;-78
2023/07/05 09:37:33;;;;;;;;;;;;;;;33.71;35.67;99787.37;4480830;32;34102;-78
2023/07/05 09:40:17;;;;;;;;;;;;;;;33.79;35.86;99786.06;4473005;32;34131;-76
2023/07/05 09:42:51;;;;;;;;;;;;;;;33.89;35.52;99791.81;4479561;32;34203;-77
2023/07/05 09:45:19;;;;;;;;;;;;;;;34.09;36.03;99782.69;4477827;32;33443;-78
2023/07/05 09:47:47;;;;;;;;;;;;;;;34.38;35.30;99785.69;4471439;32;34723;-79
2023/07/05 09:50:16;;;;;;;;;;;;;;;34.71;34.17;99779.44;4480801;32;34283;-79
2023/07/05 09:52:58;;;;;;;;;;;;;;;34.74;33.48;99780.16;4473351;32;34525;-77
2023/07/05 09:55:28;;;;;;;;;;;;;;;35.00;32.95;99780.47;4476490;32;33362;-78
2023/07/05 09:57:59;;;;;;;;;;;;;;;35.33;32.39;99777.72;4476622;32;34290;-77
2023/07/05 10:00:33;;;;;;;;;;;;;;;35.13;33.32;99777.97;4478363;32;33820;-79
2023/07/05 10:03:05;;;;;;;;;;;;;;;34.63;33.31;99775.31;4482302;32;34900;-77
2023/07/05 10:05:32;;;;;;;;;;;;;;;34.49;32.84;99769.84;4472315;32;33483;-77
2023/07/05 10:08:00;;;;;;;;;;;;;;;34.69;32.86;99771.44;4479889;32;34616;-77
2023/07/05 10:10:35;;;;;;;;;;;;;;;34.77;33.30;99762.94;4478820;32;33863;-79
2023/07/05 10:13:03;;;;;;;;;;;;;;;34.74;34.64;99765.84;4477364;32;34054;-77
2023/07/05 10:15:31;;;;;;;;;;;;;;;35.01;33.96;99769.62;4480037;32;33532;-81
2023/07/05 10:18:01;;;;;;;;;;;;;;;34.81;33.63;99776.16;4473286;32;34223;-77
2023/07/05 10:20:31;;;;;;;;;;;;;;;34.72;33.72;99768.59;4484550;32;35002;-77
2023/07/05 10:23:04;;;;;;;;;;;;;;;34.86;33.78;99773.19;4483950;32;34851;-80
2023/07/05 10:25:33;;;;;;;;;;;;;;;34.97;32.69;99764.53;4476117;32;32835;-80
2023/07/05 10:28:02;;;;;;;;;;;;;;;35.22;32.81;99764.03;4483472;32;34732;-78
2023/07/05 10:30:29;;;;;;;;;;;;;;;35.34;32.00;99765.97;4472967;32;34467;-79
2023/07/05 10:33:07;;;;;;;;;;;;;;;35.43;30.40;99765.44;4482527;32;34717;-81
2023/07/05 10:35:35;;;;;;;;;;;;;;;35.37;31.40;99754.16;4481632;32;33408;-77
2023/07/05 10:38:02;;;;;;;;;;;;;;;35.23;31.32;99760.34;4471787;32;34080;-77
2023/07/05 10:40:29;;;;;;;;;;;;;;;35.39;31.23;99754.97;4477551;32;34256;-80
2023/07/05 10:43:00;;;;;;;;;;;;;;;35.54;31.72;99759.41;4477820;32;35146;-80
2023/07/05 10:45:28;;;;;;;;;;;;;;;35.74;30.60;99746.62;4478978;32;33306;-78
2023/07/05 10:47:55;;;;;;;;;;;;;;;35.91;29.85;99742.87;4471662;32;34142;-77
2023/07/05 10:50:26;;;;;;;;;;;;;;;36.00;29.60;99739.63;4469770;32;34319;-79
2023/07/05 10:52:55;;;;;;;;;;;;;;;35.59;31.10;99745.69;4469055;32;34372;-81
2023/07/05 10:55:35;;;;;;;;;;;;;;;35.57;31.31;99748.47;4476440;32;33128;-77
2023/07/05 10:58:06;;;;;;;;;;;;;;;35.62;30.35;99740.97;4475415;32;34941;-77
2023/07/05 11:00:39;;;;;;;;;;;;;;;35.61;30.08;99738.38;4478619;32;35067;-80
2023/07/05 11:03:15;;;;;;;;;;;;;;;35.89;30.44;99734.00;4474563;32;34274;-78
2023/07/05 11:05:49;;;;;;;;;;;;;;;35.70;29.91;99737.84;4471333;32;34042;-78
2023/07/05 11:08:17;;;;;;;;;;;;;;;35.83;29.34;99729.88;4473942;32;34332;-79
2023/07/05 11:10:45;;;;;;;;;;;;;;;35.87;29.85;99727.84;4477516;32;34284;-80
2023/07/05 11:13:14;;;;;;;;;;;;;;;35.76;29.56;99729.41;4475022;32;34147;-79
2023/07/05 11:15:41;;;;;;;;;;;;;;;35.95;29.85;99725.53;4483777;32;33155;-78
2023/07/05 11:18:16;;;;;;;;;;;;;;;35.73;28.69;99718.78;4470185;32;33955;-81
2023/07/05 11:20:43;;;;;;;;;;;;;;;35.13;29.55;99726.81;4469180;32;34891;-80
2023/07/05 11:23:11;;;;;;;;;;;;;;;35.31;30.30;99714.13;4476229;32;34742;-80
2023/07/05 11:25:54;;;;;;;;;;;;;;;35.34;28.57;99712.13;4472756;32;32844;-82
2023/07/05 11:28:32;;;;;;;;;;;;;;;34.99;30.22;99715.03;4480733;32;34854;-80
2023/07/05 11:31:00;;;;;;;;;;;;;;;35.08;30.85;99707.38;4475326;32;33931;-80
2023/07/05 11:33:28;;;;;;;;;;;;;;;35.50;29.56;99713.91;4470140;32;33707;-78
2023/07/05 11:35:57;;;;;;;;;;;;;;;35.62;29.95;99699.69;4468699;32;34248;-78
2023/07/05 11:38:37;;;;;;;;;;;;;;;35.87;29.67;99700.91;4483706;32;33788;-78
2023/07/05 11:41:08;;;;;;;;;;;;;;;35.79;29.26;99694.19;4481790;32;34189;-79
2023/07/05 11:43:36;;;;;;;;;;;;;;;35.53;30.19;99692.19;4475661;32;34623;-78
2023/07/05 11:46:07;;;;;;;;;;;;;;;35.37;29.65;99694.91;4479906;32;33410;-79
2023/07/05 11:48:38;;;;;;;;;;;;;;;35.15;30.05;99687.22;4473808;32;34641;-80
2023/07/05 11:51:08;;;;;;;;;;;;;;;35.13;31.37;99690.00;4473495;32;33918;-79
2023/07/05 11:53:56;;;;;;;;;;;;;;;35.37;29.41;99695.78;4473334;32;34079;-79
2023/07/05 11:56:24;;;;;;;;;;;;;;;35.13;29.95;99683.75;4474221;32;34093;-78
2023/07/05 11:58:51;;;;;;;;;;;;;;;35.43;30.26;99679.25;4480576;32;35050;-80
2023/07/05 12:01:22;;;;;;;;;;;;;;;35.40;30.83;99676.75;4471416;32;34278;-79
2023/07/05 12:03:51;;;;;;;;;;;;;;;35.26;30.21;99673.16;4472900;32;35171;-79
2023/07/05 12:06:19;;;;;;;;;;;;;;;35.19;30.75;99672.66;4467810;32;33288;-78
2023/07/05 12:08:48;;;;;;;;;;;;;;;35.53;30.43;99659.84;4469147;32;33583;-78
2023/07/05 12:11:26;;;;;;;;;;;;;;;35.30;31.04;99662.09;4476291;32;32164;-79
2023/07/05 12:13:53;;;;;;;;;;;;;;;35.15;31.41;99654.91;4478314;32;34610;-79
2023/07/05 12:16:21;;;;;;;;;;;;;;;35.10;31.72;99659.69;4481850;32;33768;-79
2023/07/05 12:18:48;;;;;;;;;;;;;;;35.17;31.12;99650.34;4481168;32;33915;-78
2023/07/05 12:21:15;;;;;;;;;;;;;;;34.91;31.05;99647.34;4481132;32;34591;-78
2023/07/05 12:23:43;;;;;;;;;;;;;;;34.91;31.36;99652.72;4478867;32;33685;-78
2023/07/05 12:26:23;;;;;;;;;;;;;;;34.33;31.03;99647.97;4477499;32;33927;-81
2023/07/05 12:28:51;;;;;;;;;;;;;;;34.17;30.41;99639.84;4476678;32;34100;-79
2023/07/05 12:31:19;;;;;;;;;;;;;;;33.97;31.92;99633.75;4480328;32;34001;-77
2023/07/05 12:33:54;;;;;;;;;;;;;;;34.12;31.97;99626.66;4474322;32;32459;-80
2023/07/05 12:36:22;;;;;;;;;;;;;;;34.25;32.41;99625.06;4477577;32;33206;-78
2023/07/05 12:38:50;;;;;;;;;;;;;;;34.49;31.76;99621.91;4480618;32;34357;-77
2023/07/05 12:41:21;;;;;;;;;;;;;;;34.70;31.83;99622.53;4477673;32;34194;-78
2023/07/05 12:44:00;;;;;;;;;;;;;;;34.84;32.56;99614.53;4481497;32;34425;-77
2023/07/05 12:46:28;;;;;;;;;;;;;;;35.12;31.55;99609.31;4473448;32;34110;-79
2023/07/05 12:49:08;;;;;;;;;;;;;;;35.26;31.43;99609.41;4473504;32;34669;-79
2023/07/05 12:51:35;;;;;;;;;;;;;;;35.43;29.62;99601.16;4472510;32;34248;-78
2023/07/05 12:54:04;;;;;;;;;;;;;;;35.32;30.44;99603.63;4472336;32;34498;-80
2023/07/05 12:56:33;;;;;;;;;;;;;;;35.50;30.17;99598.06;4483495;32;33861;-80
2023/07/05 12:59:03;;;;;;;;;;;;;;;35.63;30.92;99597.22;4478826;32;34968;-77
2023/07/05 13:01:31;;;;;;;;;;;;;;;35.37;30.39;99584.50;4481837;32;35149;-79